createdAt,value
2022-09-15T05:00:44.086Z,90.00
2022-09-15T05:03:16.294Z,89.96
2022-09-15T05:05:48.503Z,89.86
2022-09-15T05:08:17.243Z,89.80
2022-09-15T05:10:46.245Z,89.75
2022-09-15T05:13:15.246Z,89.70
2022-09-15T05:15:44.203Z,89.68
2022-09-15T05:18:13.126Z,89.61
2022-09-15T05:20:41.905Z,89.60
2022-09-15T05:23:11.065Z,89.59
2022-09-15T05:25:39.890Z,89.59
2022-09-15T05:28:08.603Z,89.67
2022-09-15T05:30:44.883Z,89.79
2022-09-15T05:33:17.224Z,89.80
2022-09-15T05:36:01.063Z,89.71
2022-09-15T05:38:32.543Z,89.65
2022-09-15T05:41:05.406Z,89.58
2022-09-15T05:43:36.947Z,89.60
2022-09-15T05:46:07.956Z,89.60
2022-09-15T05:48:37.531Z,89.51
2022-09-15T05:51:07.509Z,89.43
2022-09-15T05:53:37.312Z,89.35
2022-09-15T05:56:12.285Z,89.32
2022-09-15T05:58:43.465Z,89.19
2022-09-15T06:01:26.293Z,89.00
2022-09-15T06:03:57.323Z,88.82
2022-09-15T06:06:29.897Z,88.58
2022-09-15T06:09:02.170Z,88.04
2022-09-15T06:11:35.684Z,87.81
2022-09-15T06:14:06.674Z,87.73
2022-09-15T06:16:37.685Z,87.54
2022-09-15T06:19:13.131Z,87.57
2022-09-15T06:21:49.943Z,87.38
2022-09-15T06:24:19.839Z,87.26
2022-09-15T06:26:49.894Z,87.16
2022-09-15T06:29:20.031Z,87.11
2022-09-15T06:31:50.082Z,87.02
2022-09-15T06:34:29.013Z,87.01
2022-09-15T06:36:58.831Z,86.66
2022-09-15T06:39:28.328Z,86.96
2022-09-15T06:42:05.811Z,86.68
2022-09-15T06:44:35.023Z,85.74
2022-09-15T06:47:04.832Z,86.03
2022-09-15T06:49:33.920Z,86.08
2022-09-15T06:52:03.425Z,86.10
2022-09-15T06:54:32.183Z,85.48
2022-09-15T06:57:01.003Z,85.15
2022-09-15T06:59:29.945Z,85.25
2022-09-15T07:02:06.138Z,84.77
2022-09-15T07:04:39.141Z,84.82
2022-09-15T07:07:09.317Z,85.06
2022-09-15T07:09:42.815Z,84.96
2022-09-15T07:12:13.592Z,84.57
2022-09-15T07:14:43.407Z,84.02
2022-09-15T07:17:12.200Z,83.73
2022-09-15T07:19:41.903Z,83.12
2022-09-15T07:22:12.364Z,83.37
2022-09-15T07:24:41.025Z,83.52
2022-09-15T07:27:10.083Z,82.98
2022-09-15T07:29:39.165Z,83.10
2022-09-15T07:32:08.154Z,82.52
2022-09-15T07:34:36.906Z,82.56
2022-09-15T07:37:06.727Z,82.22
2022-09-15T07:39:35.622Z,81.80
2022-09-15T07:42:06.763Z,81.34
2022-09-15T07:44:35.648Z,81.41
2022-09-15T07:47:04.684Z,81.96
2022-09-15T07:49:33.633Z,81.76
2022-09-15T07:52:03.307Z,81.57
2022-09-15T07:54:32.044Z,81.36
2022-09-15T07:57:01.126Z,80.42
2022-09-15T07:59:29.999Z,80.37
2022-09-15T08:01:58.750Z,80.81
2022-09-15T08:04:27.794Z,81.28
2022-09-15T08:06:57.483Z,80.61
2022-09-15T08:09:26.503Z,79.50
2022-09-15T08:11:55.304Z,79.50
2022-09-15T08:14:31.877Z,78.75
2022-09-15T08:17:04.528Z,78.19
2022-09-15T08:19:36.426Z,78.85
2022-09-15T08:22:05.620Z,78.33
2022-09-15T08:24:35.210Z,77.79
2022-09-15T08:27:04.361Z,77.09
2022-09-15T08:29:33.203Z,76.23
2022-09-15T08:32:02.925Z,77.34
2022-09-15T08:34:32.108Z,75.95
2022-09-15T08:37:01.005Z,75.56
2022-09-15T08:39:29.683Z,75.42
2022-09-15T08:42:02.005Z,75.34
2022-09-15T09:26:28.809Z,69.59
2022-09-15T09:29:08.585Z,69.61
2022-09-15T09:31:37.740Z,69.88
2022-09-15T09:34:42.879Z,69.55
2022-09-15T09:37:17.717Z,69.78
2022-09-15T09:39:48.073Z,69.76
2022-09-15T09:42:19.746Z,69.35
2022-09-15T09:44:59.339Z,69.19
2022-09-15T09:51:40.166Z,69.21
2022-09-15T09:54:18.387Z,67.35
2022-09-15T09:56:52.547Z,67.65
2022-09-15T09:59:42.671Z,66.62
2022-09-15T10:02:16.512Z,66.04
2022-09-15T10:04:55.769Z,66.24
2022-09-15T10:07:27.528Z,66.32
2022-09-15T10:10:00.586Z,66.56
2022-09-15T10:12:41.878Z,66.78
2022-09-15T10:15:26.724Z,66.65
2022-09-15T10:17:57.603Z,66.77
2022-09-15T10:20:46.167Z,67.38
2022-09-15T10:23:18.228Z,67.45
2022-09-15T10:25:59.162Z,68.33
2022-09-15T10:28:29.632Z,67.94
2022-09-15T10:31:11.826Z,67.96
2022-09-15T10:33:46.057Z,66.11
2022-09-15T10:36:20.956Z,65.23
2022-09-15T10:38:56.824Z,65.32
2022-09-15T10:41:32.427Z,64.72
2022-09-15T10:44:45.091Z,64.67
2022-09-15T10:47:56.076Z,64.26
2022-09-15T10:50:52.418Z,64.95
2022-09-15T10:54:04.017Z,63.68
2022-09-15T10:56:52.863Z,65.24
2022-09-15T10:59:48.475Z,66.18
2022-09-15T11:03:21.775Z,65.70
2022-09-15T11:06:11.963Z,65.50
2022-09-15T11:09:16.098Z,65.17
2022-09-15T11:12:54.712Z,65.33
2022-09-15T11:16:00.493Z,63.91
2022-09-15T11:19:27.438Z,64.24
2022-09-15T11:22:07.778Z,64.76
2022-09-15T11:24:50.493Z,65.53
2022-09-15T11:27:38.022Z,65.38
2022-09-15T11:30:34.153Z,65.61
2022-09-15T11:33:40.403Z,65.08
2022-09-15T11:36:23.352Z,65.42
2022-09-15T11:39:13.632Z,65.93
2022-09-15T11:41:56.953Z,66.20
2022-09-15T11:44:40.112Z,65.45
2022-09-15T11:48:21.907Z,65.29
2022-09-15T11:57:32.598Z,64.10
2022-09-15T12:00:15.344Z,63.96
2022-09-15T12:03:23.645Z,63.34
2022-09-15T12:06:02.973Z,63.82
2022-09-15T12:08:47.596Z,63.26
2022-09-15T12:11:26.388Z,62.78
2022-09-15T12:13:56.363Z,62.39
2022-09-15T12:16:27.668Z,62.18
2022-09-15T12:19:38.099Z,61.69
2022-09-15T12:22:23.867Z,62.70
2022-09-15T12:25:06.625Z,61.87
2022-09-15T12:27:36.417Z,61.67
2022-09-15T12:30:07.049Z,62.51
2022-09-15T12:32:37.103Z,61.92
2022-09-15T12:35:18.912Z,61.99
2022-09-15T12:37:59.427Z,61.95
2022-09-15T12:40:31.330Z,61.48
2022-09-15T12:43:16.350Z,61.54
2022-09-15T12:46:02.489Z,61.24
2022-09-15T12:48:36.833Z,61.44
2022-09-15T12:51:13.425Z,62.47
2022-09-15T12:53:55.840Z,62.27
2022-09-15T12:56:30.352Z,61.95
2022-09-15T12:59:14.233Z,61.61
2022-09-15T13:01:51.387Z,61.86
2022-09-15T13:04:44.339Z,61.17
2022-09-15T13:07:16.084Z,61.40
2022-09-15T13:09:58.416Z,61.68
2022-09-15T13:12:43.988Z,61.30
2022-09-15T13:15:19.124Z,60.04
2022-09-15T13:17:48.626Z,60.12
2022-09-15T13:20:30.625Z,60.13
2022-09-15T13:23:02.214Z,59.83
2022-09-15T13:25:31.785Z,58.39
2022-09-15T13:28:03.939Z,58.38
2022-09-15T13:31:06.919Z,58.65
2022-09-15T13:41:04.903Z,60.48
2022-09-15T13:43:58.876Z,61.93
2022-09-15T13:46:56.729Z,62.94
2022-09-15T13:50:16.611Z,63.34
2022-09-15T13:53:27.181Z,64.05
2022-09-15T13:55:57.250Z,64.79
2022-09-15T14:01:26.237Z,65.99
2022-09-15T14:04:24.988Z,66.12
2022-09-15T14:07:01.084Z,66.30
2022-09-15T14:09:47.928Z,66.13
2022-09-15T14:12:19.108Z,65.94
2022-09-15T14:14:58.970Z,65.38
2022-09-15T14:17:30.417Z,62.55
2022-09-15T14:20:02.188Z,60.88
2022-09-15T14:22:34.724Z,58.91
2022-09-15T14:25:15.150Z,59.26
2022-09-15T14:27:51.588Z,59.99
2022-09-15T14:30:32.848Z,59.89
2022-09-15T14:33:04.450Z,60.53
2022-09-15T14:35:39.140Z,61.11
2022-09-15T14:38:20.450Z,61.54
2022-09-15T14:40:57.409Z,62.72
2022-09-15T14:43:40.950Z,63.30
2022-09-15T14:46:18.015Z,63.71
2022-09-15T14:48:47.350Z,63.64
2022-09-15T14:51:26.137Z,64.03
2022-09-15T14:54:03.716Z,63.23
2022-09-15T14:56:50.059Z,63.00
2022-09-15T14:59:47.825Z,61.31
2022-09-15T15:02:45.206Z,60.98
2022-09-15T15:05:26.966Z,59.93
2022-09-15T15:30:51.856Z,62.69
2022-09-15T15:33:28.198Z,63.24
2022-09-15T15:36:12.266Z,63.53
2022-09-15T15:38:47.522Z,63.68
2022-09-15T15:41:31.444Z,63.73
2022-09-15T15:44:07.476Z,64.14
2022-09-15T15:47:01.568Z,64.73
2022-09-15T15:49:32.648Z,65.43
2022-09-15T15:52:01.922Z,65.99
2022-09-15T15:54:29.373Z,66.20
2022-09-15T15:57:24.686Z,66.57
2022-09-15T15:59:58.158Z,66.76
2022-09-15T16:02:26.900Z,67.33
2022-09-15T16:04:55.038Z,67.40
2022-09-15T16:07:28.881Z,67.94
2022-09-15T16:10:01.618Z,67.97
2022-09-15T16:12:30.819Z,68.29
2022-09-15T16:15:01.048Z,68.34
2022-09-15T16:17:28.306Z,68.69
2022-09-15T16:19:55.976Z,68.90
2022-09-15T16:22:23.517Z,69.06
2022-09-15T16:24:52.619Z,68.69
2022-09-15T16:27:20.178Z,67.84
2022-09-15T16:29:48.048Z,67.29
2022-09-15T16:32:21.388Z,66.91
2022-09-15T16:34:52.390Z,66.98
2022-09-15T16:37:20.767Z,67.00
2022-09-15T16:39:48.582Z,67.24
2022-09-15T16:42:16.178Z,67.32
2022-09-15T16:44:44.148Z,67.66
2022-09-15T16:47:11.308Z,68.05
2022-09-15T16:49:39.289Z,68.47
2022-09-15T16:52:13.308Z,68.79
2022-09-15T16:54:40.550Z,68.63
2022-09-15T16:57:07.908Z,68.48
2022-09-15T16:59:35.986Z,68.35
2022-09-15T17:02:05.490Z,68.41
2022-09-15T17:04:32.927Z,68.68
2022-09-15T17:07:00.287Z,69.10
2022-09-15T17:09:27.549Z,69.49
2022-09-15T17:11:55.878Z,69.91
2022-09-15T17:14:23.389Z,70.41
2022-09-15T17:16:52.787Z,70.75
2022-09-15T17:19:20.437Z,71.20
2022-09-15T17:21:49.934Z,71.59
2022-09-15T17:24:18.049Z,71.88
2022-09-15T17:26:45.910Z,72.08
2022-09-15T17:29:13.439Z,72.15
2022-09-15T17:31:41.153Z,72.24
2022-09-15T17:34:14.106Z,72.36
2022-09-15T17:36:41.566Z,72.44
2022-09-15T17:39:09.207Z,72.38
2022-09-15T17:41:38.406Z,72.24
2022-09-15T17:44:11.116Z,72.28
2022-09-15T17:46:38.594Z,72.26
2022-09-15T17:49:06.305Z,72.38
2022-09-15T17:51:33.986Z,72.54
2022-09-15T17:54:01.349Z,72.88
2022-09-15T17:56:28.995Z,72.95
2022-09-15T17:58:56.346Z,72.96
2022-09-15T18:01:24.008Z,72.98
2022-09-15T18:03:51.457Z,73.03
2022-09-15T18:06:18.926Z,72.90
2022-09-15T18:08:46.431Z,72.40
2022-09-15T18:11:15.185Z,72.19
2022-09-15T18:13:42.770Z,72.01
2022-09-15T18:16:14.322Z,72.09
2022-09-15T18:18:42.646Z,72.21
2022-09-15T18:21:25.692Z,72.25
2022-09-15T18:23:53.147Z,72.46
2022-09-15T18:26:23.848Z,72.75
2022-09-15T18:28:54.253Z,73.02
2022-09-15T18:31:21.947Z,73.04
2022-09-15T18:33:49.326Z,73.20
2022-09-15T18:36:16.876Z,73.49
2022-09-15T18:38:44.037Z,73.70
2022-09-15T18:41:11.585Z,73.91
2022-09-15T18:43:39.147Z,74.18
2022-09-15T18:46:06.935Z,74.36
2022-09-15T18:48:34.270Z,74.57
2022-09-15T18:51:01.538Z,74.82
2022-09-15T18:53:30.009Z,74.99
2022-09-15T18:55:58.434Z,75.12
2022-09-15T18:58:26.575Z,75.32
2022-09-15T19:01:00.070Z,75.59
2022-09-15T19:03:28.357Z,75.91
2022-09-15T19:05:55.996Z,76.15
2022-09-15T19:08:23.354Z,76.39
2022-09-15T19:10:59.057Z,76.47
2022-09-15T19:13:28.536Z,76.57
2022-09-15T19:16:02.041Z,76.70
2022-09-15T19:18:31.226Z,76.87
2022-09-15T19:21:11.211Z,77.18
2022-09-15T19:23:39.746Z,77.60
2022-09-15T19:26:18.749Z,77.86
2022-09-15T19:28:51.237Z,77.93
2022-09-15T19:31:19.778Z,77.97
2022-09-15T19:33:48.307Z,78.14
2022-09-15T19:36:28.154Z,78.18
2022-09-15T19:39:02.798Z,78.29
2022-09-15T19:41:31.266Z,78.53
2022-09-15T19:44:02.217Z,78.83
2022-09-15T19:46:31.400Z,78.87
2022-09-15T19:48:59.075Z,78.96
2022-09-15T19:51:26.326Z,79.14
2022-09-15T19:53:58.792Z,79.18
2022-09-15T19:56:28.249Z,79.40
2022-09-15T19:58:58.648Z,79.56
2022-09-15T20:01:29.144Z,79.61
2022-09-15T20:06:43.515Z,79.70
2022-09-15T20:09:11.286Z,79.77
2022-09-15T20:11:39.249Z,79.89
2022-09-15T20:14:06.931Z,79.95
2022-09-15T20:16:35.391Z,79.77
2022-09-15T20:19:04.580Z,79.78
2022-09-15T20:21:52.306Z,79.75
2022-09-15T20:24:23.510Z,79.66
2022-09-15T20:26:52.595Z,79.71
2022-09-15T20:29:21.091Z,79.72
2022-09-15T20:31:48.846Z,79.83
2022-09-15T20:34:18.288Z,79.88
2022-09-15T20:36:45.786Z,79.86
2022-09-15T20:39:15.558Z,79.86
2022-09-15T20:41:46.589Z,79.85
2022-09-15T20:44:15.127Z,79.98
2022-09-15T20:46:43.092Z,80.04
2022-09-15T20:49:12.108Z,79.99
2022-09-15T20:51:39.537Z,80.04
2022-09-15T20:54:06.899Z,79.98
2022-09-15T20:56:37.865Z,79.91
2022-09-15T20:59:07.528Z,79.83
2022-09-15T21:01:38.043Z,79.89
2022-09-15T21:04:08.712Z,79.90
2022-09-15T21:06:37.397Z,80.08
2022-09-15T21:09:05.356Z,80.07
2022-09-15T21:11:33.745Z,80.14
2022-09-15T21:14:02.176Z,80.23
2022-09-15T21:16:30.052Z,80.22
2022-09-15T21:18:58.832Z,80.25
2022-09-15T21:21:30.099Z,80.36
2022-09-15T21:24:03.326Z,80.43
2022-09-15T21:26:59.866Z,80.49
2022-09-15T21:29:28.425Z,80.59
2022-09-15T21:31:56.477Z,80.66
2022-09-15T21:34:24.367Z,80.80
2022-09-15T21:36:53.156Z,80.95
2022-09-15T21:39:21.237Z,81.07
2022-09-15T21:41:49.508Z,81.14
2022-09-15T21:44:16.969Z,81.02
2022-09-15T21:46:46.786Z,80.86
2022-09-15T21:49:14.872Z,80.76
2022-09-15T21:51:42.407Z,80.62
2022-09-15T21:54:10.378Z,80.52
2022-09-15T21:56:38.256Z,80.57
